createdAt,value
2018-10-18T00:00:49.335Z,99.90
2018-10-18T00:03:16.867Z,99.90
2018-10-18T00:05:44.288Z,99.90
2018-10-18T00:08:11.937Z,99.90
2018-10-18T00:10:39.339Z,99.90
2018-10-18T00:13:06.746Z,99.90
2018-10-18T00:15:34.207Z,99.90
2018-10-18T00:18:01.663Z,99.90
2018-10-18T00:20:29.079Z,99.90
2018-10-18T00:22:56.536Z,99.90
2018-10-18T00:25:23.980Z,99.90
2018-10-18T00:27:51.427Z,99.90
2018-10-18T00:30:18.934Z,99.90
2018-10-18T00:32:46.332Z,99.90
2018-10-18T00:35:13.851Z,99.90
2018-10-18T00:37:41.272Z,99.90
2018-10-18T00:40:10.235Z,99.90
2018-10-18T00:42:37.671Z,99.90
2018-10-18T00:45:06.063Z,99.90
2018-10-18T00:47:33.515Z,99.90
2018-10-18T00:50:01.003Z,99.90
2018-10-18T00:52:28.395Z,99.90
2018-10-18T00:54:55.821Z,99.90
2018-10-18T00:57:23.316Z,99.90
2018-10-18T00:59:50.764Z,99.90
2018-10-18T01:02:18.315Z,99.90
2018-10-18T01:04:45.652Z,99.90
2018-10-18T01:07:13.122Z,99.90
2018-10-18T01:09:40.555Z,99.90
2018-10-18T01:12:08.089Z,99.90
2018-10-18T01:14:35.519Z,99.90
2018-10-18T01:17:04.664Z,99.90
2018-10-18T01:19:33.711Z,99.90
2018-10-18T01:22:01.708Z,99.90
2018-10-18T01:24:29.159Z,99.90
2018-10-18T01:26:56.664Z,99.90
2018-10-18T01:29:24.614Z,99.90
2018-10-18T01:31:52.115Z,99.90
2018-10-18T01:34:19.600Z,99.90
2018-10-18T01:36:47.023Z,99.90
2018-10-18T01:39:14.462Z,99.90
2018-10-18T01:41:41.920Z,99.90
2018-10-18T01:44:10.871Z,99.90
2018-10-18T01:46:38.739Z,99.90
2018-10-18T01:49:06.961Z,99.90
2018-10-18T01:51:35.185Z,99.90
2018-10-18T01:54:03.128Z,99.90
2018-10-18T01:56:30.998Z,99.90
2018-10-18T01:58:58.907Z,99.90
2018-10-18T02:01:27.387Z,99.90
2018-10-18T02:03:54.824Z,99.90
2018-10-18T02:06:22.329Z,99.90
2018-10-18T02:08:49.748Z,99.90
2018-10-18T02:11:17.256Z,99.90
2018-10-18T02:13:44.794Z,99.90
2018-10-18T02:16:12.166Z,99.90
2018-10-18T02:18:39.580Z,99.90
2018-10-18T02:21:07.677Z,99.90
2018-10-18T02:23:35.311Z,99.90
2018-10-18T02:26:02.727Z,99.90
2018-10-18T02:28:30.164Z,99.90
2018-10-18T02:30:57.600Z,99.90
2018-10-18T02:33:25.077Z,99.90
2018-10-18T02:35:52.586Z,99.90
2018-10-18T02:38:20.193Z,99.90
2018-10-18T02:40:47.624Z,99.90
2018-10-18T02:43:15.079Z,99.90
2018-10-18T02:45:42.526Z,99.90
2018-10-18T02:48:10.073Z,99.90
2018-10-18T02:50:37.419Z,99.90
2018-10-18T02:53:04.911Z,99.90
2018-10-18T02:55:32.320Z,99.90
2018-10-18T02:57:59.751Z,99.90
2018-10-18T03:00:27.192Z,99.90
2018-10-18T03:02:54.698Z,99.90
2018-10-18T03:05:22.747Z,99.90
2018-10-18T03:07:50.172Z,99.90
2018-10-18T03:10:17.596Z,99.90
2018-10-18T03:12:45.051Z,99.90
2018-10-18T03:15:12.509Z,99.90
2018-10-18T03:17:39.963Z,99.90
2018-10-18T03:20:07.389Z,99.90
2018-10-18T03:22:34.803Z,99.90
2018-10-18T03:25:02.318Z,99.90
2018-10-18T03:27:29.756Z,99.90
2018-10-18T03:29:57.237Z,99.90
2018-10-18T03:32:24.709Z,99.90
2018-10-18T03:34:52.487Z,99.90
2018-10-18T03:37:19.919Z,99.90
2018-10-18T03:39:47.604Z,99.90
2018-10-18T03:42:15.188Z,99.90
2018-10-18T03:44:42.548Z,99.90
2018-10-18T03:47:10.008Z,99.90
2018-10-18T03:49:37.440Z,99.90
2018-10-18T03:52:05.508Z,99.90
2018-10-18T03:54:33.056Z,99.90
2018-10-18T03:57:00.535Z,99.90
2018-10-18T03:59:28.150Z,99.90
2018-10-18T04:01:55.631Z,99.90
2018-10-18T04:04:23.120Z,99.90
2018-10-18T04:06:50.556Z,99.90
2018-10-18T04:09:17.993Z,99.90
2018-10-18T04:11:45.400Z,99.90
2018-10-18T04:14:12.815Z,99.90
2018-10-18T04:16:40.266Z,99.90
2018-10-18T04:19:07.692Z,99.90
2018-10-18T04:21:35.135Z,99.90
2018-10-18T04:24:02.681Z,99.90
2018-10-18T04:26:30.176Z,99.90
2018-10-18T04:28:57.655Z,99.90
2018-10-18T04:31:25.112Z,99.90
2018-10-18T04:33:52.627Z,99.90
2018-10-18T04:36:20.232Z,99.90
2018-10-18T04:38:47.557Z,99.90
2018-10-18T04:41:14.975Z,99.90
2018-10-18T04:43:46.569Z,99.90
2018-10-18T04:46:13.984Z,99.90
2018-10-18T04:48:41.646Z,99.90
2018-10-18T04:51:09.303Z,99.90
2018-10-18T04:53:36.947Z,99.90
2018-10-18T04:56:04.412Z,99.90
2018-10-18T04:58:32.008Z,99.90
2018-10-18T05:00:59.509Z,99.90
2018-10-18T05:03:26.923Z,99.90
2018-10-18T05:05:55.684Z,99.90
2018-10-18T05:08:24.199Z,99.90
2018-10-18T05:10:51.687Z,99.90
2018-10-18T05:13:19.229Z,99.90
2018-10-18T05:15:46.747Z,99.90
2018-10-18T05:18:14.932Z,99.90
2018-10-18T05:20:42.457Z,99.90
2018-10-18T05:23:09.987Z,99.90
2018-10-18T05:25:37.668Z,99.90
2018-10-18T05:28:05.244Z,99.90
2018-10-18T05:30:32.833Z,99.90
2018-10-18T05:33:00.620Z,99.90
2018-10-18T05:35:28.043Z,99.90
2018-10-18T05:37:55.520Z,99.90
2018-10-18T05:40:22.974Z,99.90
2018-10-18T05:42:50.443Z,99.90
2018-10-18T05:45:17.899Z,99.90
2018-10-18T05:47:45.379Z,99.90
2018-10-18T05:50:12.840Z,99.90
2018-10-18T05:52:40.472Z,99.90
2018-10-18T05:55:09.574Z,99.90
2018-10-18T05:57:37.322Z,99.90
2018-10-18T06:00:07.776Z,99.90
2018-10-18T06:02:35.351Z,99.90
2018-10-18T06:05:02.922Z,99.90
2018-10-18T06:07:30.495Z,99.90
2018-10-18T06:09:58.133Z,99.90
2018-10-18T06:12:25.661Z,99.90
2018-10-18T06:14:53.253Z,99.90
2018-10-18T06:17:20.803Z,99.90
2018-10-18T06:19:48.377Z,99.90
2018-10-18T06:22:15.942Z,99.90
2018-10-18T06:24:43.532Z,99.90
2018-10-18T06:27:11.089Z,99.90
2018-10-18T06:29:38.829Z,99.90
2018-10-18T06:32:06.428Z,99.90
2018-10-18T06:34:33.983Z,99.90
2018-10-18T06:37:01.591Z,99.90
2018-10-18T06:39:29.135Z,99.90
2018-10-18T06:41:58.400Z,99.90
2018-10-18T06:44:26.150Z,99.90
2018-10-18T06:46:53.883Z,99.90
2018-10-18T06:49:21.432Z,99.90
2018-10-18T06:51:49.082Z,99.90
2018-10-18T06:54:16.725Z,99.90
2018-10-18T06:56:44.483Z,99.90
2018-10-18T06:59:12.023Z,99.90
2018-10-18T07:01:39.588Z,99.90
2018-10-18T07:04:07.204Z,99.90
2018-10-18T07:06:34.795Z,99.90
2018-10-18T07:09:03.572Z,99.90
2018-10-18T07:11:31.378Z,99.90
2018-10-18T07:14:00.245Z,99.90
2018-10-18T07:16:28.563Z,99.90
2018-10-18T07:18:56.148Z,99.90
2018-10-18T07:21:23.769Z,99.90
2018-10-18T07:23:51.457Z,99.90
2018-10-18T07:26:19.036Z,99.90
2018-10-18T07:28:46.652Z,99.90
2018-10-18T07:31:14.300Z,99.90
2018-10-18T07:33:41.890Z,99.90
2018-10-18T07:36:09.523Z,99.90
2018-10-18T07:38:37.105Z,99.90
2018-10-18T07:41:04.866Z,99.90
2018-10-18T07:43:32.392Z,99.90
2018-10-18T07:46:00.031Z,99.90
2018-10-18T07:48:28.069Z,99.90
2018-10-18T07:50:55.587Z,99.90
2018-10-18T07:53:23.355Z,99.90
2018-10-18T07:55:50.911Z,99.90
2018-10-18T07:58:18.484Z,99.90
2018-10-18T08:00:46.354Z,99.90
2018-10-18T08:03:13.755Z,99.90
2018-10-18T08:05:41.294Z,99.90
2018-10-18T08:08:08.889Z,99.90
2018-10-18T08:10:36.430Z,99.90
2018-10-18T08:13:04.078Z,99.90
2018-10-18T08:15:31.622Z,99.90
2018-10-18T08:17:59.156Z,99.90
2018-10-18T08:20:26.740Z,99.90
2018-10-18T08:22:54.275Z,99.90
2018-10-18T08:25:21.815Z,99.90
2018-10-18T08:27:49.392Z,99.90
2018-10-18T08:30:17.004Z,99.90
2018-10-18T08:32:44.523Z,99.90
2018-10-18T08:35:12.547Z,99.90
2018-10-18T08:37:40.222Z,99.90
2018-10-18T08:40:07.937Z,99.90
2018-10-18T08:46:36.528Z,99.90
2018-10-18T08:49:04.376Z,99.90
2018-10-18T08:51:31.906Z,99.90
2018-10-18T08:53:59.463Z,99.90
2018-10-18T08:56:27.050Z,99.90
2018-10-18T08:58:55.157Z,99.90
2018-10-18T09:01:22.774Z,99.90
2018-10-18T09:03:50.337Z,99.90
2018-10-18T09:06:17.961Z,99.90
2018-10-18T09:08:45.904Z,99.90
2018-10-18T09:11:13.576Z,99.90
2018-10-18T09:13:41.100Z,99.90
2018-10-18T09:16:08.780Z,99.90
2018-10-18T09:18:36.285Z,99.90
2018-10-18T09:21:03.852Z,99.90
2018-10-18T09:23:31.443Z,99.90
2018-10-18T09:25:59.094Z,99.90
2018-10-18T09:28:26.643Z,99.90
2018-10-18T09:30:54.493Z,99.90
2018-10-18T09:33:22.050Z,99.90
2018-10-18T09:35:49.612Z,99.90
2018-10-18T09:38:17.227Z,99.90
2018-10-18T09:40:45.242Z,99.90
2018-10-18T09:43:12.767Z,99.90
2018-10-18T09:45:40.771Z,99.90
2018-10-18T09:48:08.264Z,99.90
2018-10-18T09:50:35.881Z,99.90
2018-10-18T09:53:03.521Z,99.90
2018-10-18T09:55:31.068Z,99.90
2018-10-18T09:57:58.743Z,99.90
2018-10-18T10:00:31.971Z,99.90
2018-10-18T10:03:05.247Z,99.90
2018-10-18T10:05:32.807Z,99.90
2018-10-18T10:08:00.527Z,99.90
2018-10-18T10:10:28.124Z,99.90
2018-10-18T10:12:55.669Z,99.90
2018-10-18T10:15:23.221Z,99.90
2018-10-18T10:17:50.797Z,99.90
2018-10-18T10:20:18.331Z,99.90
2018-10-18T10:22:46.876Z,99.90
2018-10-18T10:25:14.514Z,99.90
2018-10-18T10:27:42.029Z,99.90
2018-10-18T10:30:09.761Z,99.90
2018-10-18T10:32:37.331Z,99.90
2018-10-18T10:35:05.497Z,99.90
2018-10-18T10:37:33.100Z,99.90
2018-10-18T10:40:00.812Z,99.90
2018-10-18T10:42:28.391Z,99.90
2018-10-18T10:44:56.005Z,99.40
2018-10-18T10:47:23.559Z,98.90
2018-10-18T10:49:51.155Z,98.50
2018-10-18T10:52:18.845Z,98.10
2018-10-18T10:54:46.479Z,97.40
2018-10-18T10:57:14.129Z,96.90
2018-10-18T10:59:41.620Z,96.30
2018-10-18T11:02:09.237Z,96.20
2018-10-18T11:04:36.778Z,96.10
2018-10-18T11:07:04.538Z,96.00
2018-10-18T11:09:32.186Z,95.40
2018-10-18T11:11:59.765Z,95.70
2018-10-18T11:14:27.355Z,95.80
2018-10-18T11:16:54.938Z,96.00
2018-10-18T11:19:22.497Z,96.70
2018-10-18T11:21:50.141Z,96.80
2018-10-18T11:24:17.804Z,97.00
2018-10-18T11:26:45.364Z,97.20
2018-10-18T11:29:12.995Z,97.00
2018-10-18T11:31:40.636Z,96.90
2018-10-18T11:34:08.232Z,97.20
2018-10-18T11:36:35.856Z,97.50
2018-10-18T11:39:05.167Z,97.80
2018-10-18T11:41:32.865Z,98.30
2018-10-18T11:44:00.531Z,98.20
2018-10-18T11:46:28.132Z,98.60
2018-10-18T11:48:55.696Z,98.60
2018-10-18T11:51:23.316Z,98.70
2018-10-18T11:53:50.847Z,99.00
2018-10-18T11:59:20.775Z,99.00
2018-10-18T12:01:48.335Z,99.30
2018-10-18T12:04:16.471Z,99.40
2018-10-18T12:06:44.027Z,99.10
2018-10-18T12:09:11.786Z,99.00
2018-10-18T12:11:39.387Z,98.70
2018-10-18T12:14:07.768Z,98.70
2018-10-18T12:16:35.272Z,98.30
2018-10-18T12:19:03.017Z,98.20
2018-10-18T12:21:30.809Z,97.60
2018-10-18T12:23:58.403Z,97.30
2018-10-18T12:26:25.990Z,97.20
2018-10-18T12:28:53.642Z,97.00
2018-10-18T12:31:21.172Z,97.00
2018-10-18T12:33:48.741Z,97.40
2018-10-18T12:36:16.331Z,97.70
2018-10-18T12:38:43.900Z,98.20
2018-10-18T12:41:11.649Z,98.70
2018-10-18T12:43:39.128Z,99.20
2018-10-18T12:46:06.700Z,99.20
2018-10-18T12:48:34.322Z,99.30
2018-10-18T12:51:01.812Z,99.40
2018-10-18T12:53:29.667Z,99.50
2018-10-18T12:55:57.244Z,99.60
2018-10-18T12:58:25.872Z,99.70
2018-10-18T13:00:53.432Z,99.90
2018-10-18T13:03:20.965Z,99.90
2018-10-18T13:05:48.611Z,99.90
2018-10-18T13:08:16.269Z,99.90
2018-10-18T13:10:43.687Z,99.90
2018-10-18T13:13:11.309Z,99.90
2018-10-18T13:15:38.888Z,99.90
2018-10-18T13:18:06.492Z,99.90
2018-10-18T13:20:34.040Z,99.90
2018-10-18T13:23:01.713Z,99.90
2018-10-18T13:25:29.398Z,99.90
2018-10-18T13:27:56.880Z,99.90
2018-10-18T13:30:24.432Z,99.90
2018-10-18T13:32:52.031Z,99.90
2018-10-18T13:35:19.586Z,99.90
2018-10-18T13:37:47.124Z,99.90
2018-10-18T13:40:14.741Z,99.90
2018-10-18T13:42:42.306Z,99.90
2018-10-18T13:45:09.907Z,99.90
2018-10-18T13:47:37.477Z,99.90
2018-10-18T13:50:05.884Z,99.90
2018-10-18T13:52:33.952Z,99.90
2018-10-18T13:55:01.497Z,99.90
2018-10-18T13:57:29.056Z,99.90
2018-10-18T14:00:32.339Z,99.90
2018-10-18T14:02:59.907Z,99.90
2018-10-18T14:05:27.926Z,99.90
2018-10-18T14:07:56.010Z,99.90
2018-10-18T14:10:23.567Z,99.90
2018-10-18T14:12:51.843Z,99.90
2018-10-18T14:15:19.544Z,99.90
2018-10-18T14:17:47.146Z,99.90
2018-10-18T14:20:14.786Z,99.90
2018-10-18T14:22:42.275Z,99.90
2018-10-18T14:25:10.003Z,99.90
2018-10-18T14:27:37.623Z,99.90
2018-10-18T14:30:06.942Z,99.90
2018-10-18T14:32:34.571Z,99.90
2018-10-18T14:35:02.231Z,99.90
2018-10-18T14:37:29.832Z,99.90
2018-10-18T14:39:57.429Z,99.90
2018-10-18T14:42:24.944Z,99.90
2018-10-18T14:44:52.512Z,99.90
2018-10-18T14:47:21.572Z,99.90
2018-10-18T14:49:49.092Z,99.90
2018-10-18T14:52:16.736Z,99.90
2018-10-18T14:54:44.932Z,99.90
2018-10-18T14:57:13.497Z,99.90
2018-10-18T14:59:41.489Z,99.90
2018-10-18T15:02:09.247Z,99.90
2018-10-18T15:04:37.200Z,99.90
2018-10-18T15:07:04.820Z,99.90
2018-10-18T15:09:32.465Z,99.90
2018-10-18T15:12:00.072Z,99.90
2018-10-18T15:14:28.304Z,99.90
2018-10-18T15:16:55.953Z,99.90
2018-10-18T15:19:23.479Z,99.90
2018-10-18T15:21:51.031Z,99.90
2018-10-18T15:24:18.637Z,99.90
2018-10-18T15:26:46.433Z,99.90
2018-10-18T15:29:13.805Z,99.90
2018-10-18T15:31:41.388Z,99.90
2018-10-18T15:34:09.004Z,99.90
2018-10-18T15:36:36.611Z,99.90
2018-10-18T15:39:06.913Z,99.90
2018-10-18T15:41:34.621Z,99.90
2018-10-18T15:44:08.977Z,99.90
2018-10-18T15:46:37.057Z,99.90
2018-10-18T15:49:05.353Z,99.90
2018-10-18T15:51:33.085Z,99.90
2018-10-18T15:54:01.712Z,99.90
2018-10-18T15:56:29.212Z,99.90
2018-10-18T15:58:56.855Z,99.90
2018-10-18T16:01:24.483Z,99.90
2018-10-18T16:03:52.079Z,99.90
2018-10-18T16:06:24.606Z,99.90
2018-10-18T16:08:55.479Z,99.90
2018-10-18T16:11:23.442Z,99.90
2018-10-18T16:13:51.997Z,99.90
2018-10-18T16:16:21.013Z,99.90
2018-10-18T16:18:50.059Z,99.90
2018-10-18T16:21:17.932Z,99.90
2018-10-18T16:23:45.813Z,99.90
2018-10-18T16:26:13.613Z,99.90
2018-10-18T16:28:41.052Z,99.90
2018-10-18T16:31:08.898Z,99.90
2018-10-18T16:33:36.929Z,99.90
2018-10-18T16:36:04.688Z,99.90
2018-10-18T16:38:32.341Z,99.90
2018-10-18T16:41:00.001Z,99.90
2018-10-18T16:43:27.628Z,99.90
2018-10-18T16:45:55.321Z,99.90
2018-10-18T16:48:23.009Z,99.90
2018-10-18T16:50:50.548Z,99.90
2018-10-18T16:53:18.066Z,99.90
2018-10-18T16:55:45.615Z,99.90
2018-10-18T16:58:13.263Z,99.90
2018-10-18T17:00:40.767Z,99.90
2018-10-18T17:03:08.336Z,99.90
2018-10-18T17:05:35.981Z,99.90
2018-10-18T17:08:03.626Z,99.90
2018-10-18T17:10:31.149Z,99.90
2018-10-18T17:12:59.143Z,99.90
2018-10-18T17:15:26.796Z,99.90
2018-10-18T17:17:54.509Z,99.90
2018-10-18T17:20:22.038Z,99.90
2018-10-18T17:22:49.535Z,99.90
2018-10-18T17:25:17.077Z,99.90
2018-10-18T17:27:44.969Z,99.90
2018-10-18T17:30:12.551Z,99.90
2018-10-18T17:32:40.137Z,99.90
2018-10-18T17:35:07.674Z,99.90
2018-10-18T17:37:35.410Z,99.90
2018-10-18T17:40:04.568Z,99.90
2018-10-18T17:42:32.199Z,99.90
2018-10-18T17:45:00.098Z,99.90
2018-10-18T17:47:27.801Z,99.90
2018-10-18T17:49:55.452Z,99.90
2018-10-18T17:52:23.043Z,99.90
2018-10-18T17:54:50.577Z,99.90
2018-10-18T17:57:18.203Z,99.90
2018-10-18T17:59:45.862Z,99.90
2018-10-18T18:02:13.421Z,99.90
2018-10-18T18:04:41.148Z,99.90
2018-10-18T18:07:10.009Z,99.90
2018-10-18T18:09:37.564Z,99.90
2018-10-18T18:12:05.261Z,99.90
2018-10-18T18:14:32.843Z,99.90
2018-10-18T18:17:00.380Z,99.90
2018-10-18T18:19:29.304Z,99.90
2018-10-18T18:21:58.155Z,99.90
2018-10-18T18:24:26.442Z,99.90
2018-10-18T18:26:54.220Z,99.90
2018-10-18T18:29:25.811Z,99.90
2018-10-18T18:31:53.288Z,99.90
2018-10-18T18:34:20.773Z,99.90
2018-10-18T18:36:55.196Z,99.90
2018-10-18T18:39:22.775Z,99.90
2018-10-18T18:41:50.234Z,99.90
2018-10-18T18:44:18.954Z,99.90
2018-10-18T18:46:46.487Z,99.90
2018-10-18T18:49:13.926Z,99.90
2018-10-18T18:51:41.544Z,99.90
2018-10-18T18:54:09.100Z,99.90
2018-10-18T18:56:36.600Z,99.90
2018-10-18T18:59:10.175Z,99.90
2018-10-18T19:01:37.691Z,99.90
2018-10-18T19:04:05.531Z,99.90
2018-10-18T19:06:33.037Z,99.90
2018-10-18T19:09:00.653Z,99.90
2018-10-18T19:11:28.295Z,99.90
2018-10-18T19:13:55.765Z,99.90
2018-10-18T19:16:23.184Z,99.90
2018-10-18T19:18:51.078Z,99.90
2018-10-18T19:21:18.541Z,99.90
2018-10-18T19:23:46.403Z,99.90
2018-10-18T19:26:13.942Z,99.90
2018-10-18T19:28:41.407Z,99.90
2018-10-18T19:31:08.811Z,99.90
2018-10-18T19:33:36.263Z,99.90
2018-10-18T19:36:04.493Z,99.90
2018-10-18T19:38:32.110Z,99.90
2018-10-18T19:40:59.652Z,99.90
2018-10-18T19:43:27.115Z,99.90
2018-10-18T19:45:54.572Z,99.90
2018-10-18T19:48:21.982Z,99.90
2018-10-18T19:50:50.041Z,99.90
2018-10-18T19:53:17.479Z,99.90
2018-10-18T19:55:44.903Z,99.90
2018-10-18T19:58:12.477Z,99.90
2018-10-18T20:00:43.111Z,99.90
2018-10-18T20:03:10.560Z,99.90
2018-10-18T20:05:38.247Z,99.90
2018-10-18T20:08:06.393Z,99.90
2018-10-18T20:10:34.303Z,99.90
2018-10-18T20:13:02.824Z,99.90
2018-10-18T20:15:30.359Z,99.90
2018-10-18T20:17:58.322Z,99.90
2018-10-18T20:20:25.743Z,99.90
2018-10-18T20:22:53.237Z,99.90
2018-10-18T20:25:20.861Z,99.90
2018-10-18T20:27:48.319Z,99.90
2018-10-18T20:30:15.891Z,99.90
2018-10-18T20:32:43.219Z,99.90
2018-10-18T20:35:11.353Z,99.90
2018-10-18T20:37:39.479Z,99.90
2018-10-18T20:40:08.835Z,99.90
2018-10-18T20:42:36.259Z,99.90
2018-10-18T20:45:04.123Z,99.90
2018-10-18T20:47:31.625Z,99.90
2018-10-18T20:49:58.969Z,99.90
2018-10-18T20:52:26.655Z,99.90
2018-10-18T20:54:54.099Z,99.90
2018-10-18T20:57:21.619Z,99.90
2018-10-18T20:59:49.095Z,99.90
2018-10-18T21:02:16.542Z,99.90
2018-10-18T21:04:43.982Z,99.90
2018-10-18T21:07:11.443Z,99.90
2018-10-18T21:09:38.884Z,99.90
2018-10-18T21:12:06.404Z,99.90
2018-10-18T21:14:33.799Z,99.90
2018-10-18T21:17:01.327Z,99.90
2018-10-18T21:19:28.789Z,99.90
2018-10-18T21:21:56.535Z,99.90
2018-10-18T21:24:25.991Z,99.90
2018-10-18T21:26:53.556Z,99.90
2018-10-18T21:29:22.090Z,99.90
2018-10-18T21:31:51.709Z,99.90
2018-10-18T21:34:20.861Z,99.90
2018-10-18T21:36:48.335Z,99.90
2018-10-18T21:39:33.551Z,99.90
2018-10-18T21:42:04.311Z,99.90
2018-10-18T21:44:33.615Z,99.90
2018-10-18T21:47:01.419Z,99.90
2018-10-18T21:49:29.571Z,99.90
2018-10-18T21:51:57.332Z,99.90
2018-10-18T21:54:25.404Z,99.90
2018-10-18T21:56:52.892Z,99.90
2018-10-18T21:59:20.335Z,99.90
2018-10-18T22:01:47.892Z,99.90
2018-10-18T22:04:16.070Z,99.90
2018-10-18T22:06:43.911Z,99.90
2018-10-18T22:09:11.431Z,99.90
2018-10-18T22:11:38.839Z,99.90
2018-10-18T22:14:07.159Z,99.90
2018-10-18T22:16:34.972Z,99.90
2018-10-18T22:19:02.726Z,99.90
2018-10-18T22:21:30.229Z,99.90
2018-10-18T22:23:57.727Z,99.90
2018-10-18T22:26:25.184Z,99.90
2018-10-18T22:28:52.739Z,99.90
2018-10-18T22:31:20.214Z,99.90
2018-10-18T22:33:47.684Z,99.90
2018-10-18T22:36:15.218Z,99.90
2018-10-18T22:38:42.763Z,99.90
2018-10-18T22:41:10.327Z,99.90
2018-10-18T22:43:37.690Z,99.90
2018-10-18T22:46:05.188Z,99.90
2018-10-18T22:48:32.605Z,99.90
2018-10-18T22:51:00.103Z,99.90
2018-10-18T22:53:27.917Z,99.90
2018-10-18T22:55:55.449Z,99.90
2018-10-18T22:58:22.965Z,99.90
2018-10-18T23:00:50.424Z,99.90
2018-10-18T23:03:19.927Z,99.90
2018-10-18T23:05:47.907Z,99.90
2018-10-18T23:08:15.475Z,99.90
2018-10-18T23:10:43.090Z,99.90
2018-10-18T23:13:10.521Z,99.90
2018-10-18T23:15:38.095Z,99.90
2018-10-18T23:18:06.115Z,99.90
2018-10-18T23:20:33.557Z,99.90
2018-10-18T23:23:01.082Z,99.90
2018-10-18T23:25:28.548Z,99.90
2018-10-18T23:27:55.990Z,99.90
2018-10-18T23:30:23.478Z,99.90
2018-10-18T23:32:50.991Z,99.90
2018-10-18T23:35:18.444Z,99.90
2018-10-18T23:37:45.863Z,99.90
2018-10-18T23:40:13.380Z,99.90
2018-10-18T23:42:40.808Z,99.90
2018-10-18T23:45:08.800Z,99.90
2018-10-18T23:47:36.231Z,99.90
2018-10-18T23:50:03.799Z,99.90
2018-10-18T23:52:31.579Z,99.90
2018-10-18T23:54:59.120Z,99.90
2018-10-18T23:57:26.543Z,99.90
2018-10-18T23:59:53.967Z,99.90
